sensor_id;sensor_type;location;lat;lon;timestamp;P1;durP1;ratioP1;P2;durP2;ratioP2
1078;SDS011;528;47.872;11.478;2022-07-23T00:53:21;11.13;;;10.13;;
1078;SDS011;528;47.872;11.478;2022-07-23T00:56:01;11.00;;;9.90;;
1078;SDS011;528;47.872;11.478;2022-07-23T00:58:28;11.27;;;10.37;;
1078;SDS011;528;47.872;11.478;2022-07-23T01:01:07;11.00;;;10.00;;
1078;SDS011;528;47.872;11.478;2022-07-23T01:24:46;13.17;;;11.93;;
1078;SDS011;528;47.872;11.478;2022-07-23T01:27:27;13.17;;;12.07;;
1078;SDS011;528;47.872;11.478;2022-07-23T01:30:06;12.40;;;11.30;;
1078;SDS011;528;47.872;11.478;2022-07-23T01:33:03;12.07;;;10.80;;
1078;SDS011;528;47.872;11.478;2022-07-23T01:35:48;11.33;;;10.43;;
1078;SDS011;528;47.872;11.478;2022-07-23T01:38:23;9.40;;;8.60;;
1078;SDS011;528;47.872;11.478;2022-07-23T01:43:53;10.20;;;9.30;;
1078;SDS011;528;47.872;11.478;2022-07-23T01:46:30;11.60;;;9.20;;
1078;SDS011;528;47.872;11.478;2022-07-23T01:48:57;9.90;;;8.97;;
1078;SDS011;528;47.872;11.478;2022-07-23T01:51:37;10.47;;;9.57;;
1078;SDS011;528;47.872;11.478;2022-07-23T01:57:21;8.70;;;7.87;;
1078;SDS011;528;47.872;11.478;2022-07-23T02:00:00;8.83;;;8.13;;
1078;SDS011;528;47.872;11.478;2022-07-23T02:02:32;8.33;;;7.53;;
1078;SDS011;528;47.872;11.478;2022-07-23T02:07:48;9.77;;;8.93;;
1078;SDS011;528;47.872;11.478;2022-07-23T02:10:16;8.63;;;7.90;;
1078;SDS011;528;47.872;11.478;2022-07-23T02:20:06;8.37;;;7.57;;
1078;SDS011;528;47.872;11.478;2022-07-23T02:28:48;9.40;;;8.70;;
1078;SDS011;528;47.872;11.478;2022-07-23T02:31:38;10.37;;;9.37;;
1078;SDS011;528;47.872;11.478;2022-07-23T02:34:20;9.30;;;8.50;;
1078;SDS011;528;47.872;11.478;2022-07-23T02:42:50;9.30;;;8.57;;
1078;SDS011;528;47.872;11.478;2022-07-23T02:46:37;9.77;;;8.90;;
1078;SDS011;528;47.872;11.478;2022-07-23T02:49:35;10.03;;;9.23;;
1078;SDS011;528;47.872;11.478;2022-07-23T02:52:22;9.40;;;8.60;;
1078;SDS011;528;47.872;11.478;2022-07-23T02:55:20;10.07;;;9.17;;
1078;SDS011;528;47.872;11.478;2022-07-23T02:57:56;10.47;;;9.63;;
1078;SDS011;528;47.872;11.478;2022-07-23T03:00:50;10.00;;;9.00;;
1078;SDS011;528;47.872;11.478;2022-07-23T03:07:02;10.80;;;9.90;;
1078;SDS011;528;47.872;11.478;2022-07-23T03:10:00;11.23;;;10.37;;
1078;SDS011;528;47.872;11.478;2022-07-23T03:16:31;9.90;;;9.10;;
1078;SDS011;528;47.872;11.478;2022-07-23T06:57:30;10.20;;;9.40;;
1078;SDS011;528;47.872;11.478;2022-07-23T07:03:24;10.73;;;9.83;;
1078;SDS011;528;47.872;11.478;2022-07-23T07:09:49;11.37;;;10.37;;
1078;SDS011;528;47.872;11.478;2022-07-23T07:18:33;12.00;;;10.90;;
1078;SDS011;528;47.872;11.478;2022-07-23T07:21:47;12.50;;;11.40;;
1078;SDS011;528;47.872;11.478;2022-07-23T07:31:09;11.17;;;10.30;;
1078;SDS011;528;47.872;11.478;2022-07-23T07:35:10;11.13;;;10.13;;
1078;SDS011;528;47.872;11.478;2022-07-23T07:37:48;10.63;;;9.70;;
1078;SDS011;528;47.872;11.478;2022-07-23T08:01:12;12.10;;;11.10;;
1078;SDS011;528;47.872;11.478;2022-07-23T08:03:56;11.43;;;10.53;;
1078;SDS011;528;47.872;11.478;2022-07-23T08:06:42;12.47;;;11.40;;
1078;SDS011;528;47.872;11.478;2022-07-23T13:06:30;10.40;;;8.93;;
1078;SDS011;528;47.872;11.478;2022-07-23T13:09:15;8.60;;;7.90;;
1078;SDS011;528;47.872;11.478;2022-07-23T14:41:35;9.00;;;8.30;;
1078;SDS011;528;47.872;11.478;2022-07-23T17:16:15;12.60;;;11.60;;
1078;SDS011;528;47.872;11.478;2022-07-23T17:22:59;12.80;;;11.80;;
1078;SDS011;528;47.872;11.478;2022-07-23T17:25:55;11.57;;;10.47;;
1078;SDS011;528;47.872;11.478;2022-07-23T17:28:47;11.83;;;10.90;;
1078;SDS011;528;47.872;11.478;2022-07-23T17:31:37;11.63;;;10.73;;
1078;SDS011;528;47.872;11.478;2022-07-23T17:34:14;11.30;;;10.40;;
1078;SDS011;528;47.872;11.478;2022-07-23T17:36:51;12.10;;;11.10;;
1078;SDS011;528;47.872;11.478;2022-07-23T17:39:38;11.63;;;10.70;;
1078;SDS011;528;47.872;11.478;2022-07-23T17:42:14;12.20;;;11.20;;
1078;SDS011;528;47.872;11.478;2022-07-23T17:44:46;11.60;;;10.80;;
1078;SDS011;528;47.872;11.478;2022-07-23T17:47:19;11.73;;;10.83;;
1078;SDS011;528;47.872;11.478;2022-07-23T17:50:22;12.50;;;11.40;;
1078;SDS011;528;47.872;11.478;2022-07-23T17:53:58;13.27;;;12.07;;
1078;SDS011;528;47.872;11.478;2022-07-23T18:51:31;14.10;;;12.70;;
1078;SDS011;528;47.872;11.478;2022-07-23T18:54:05;13.20;;;12.20;;
1078;SDS011;528;47.872;11.478;2022-07-23T18:56:49;13.73;;;12.67;;
1078;SDS011;528;47.872;11.478;2022-07-23T18:59:42;19.53;;;17.70;;
1078;SDS011;528;47.872;11.478;2022-07-23T19:02:25;24.97;;;22.57;;
1078;SDS011;528;47.872;11.478;2022-07-23T19:21:33;14.63;;;13.30;;
1078;SDS011;528;47.872;11.478;2022-07-23T19:24:48;14.50;;;13.30;;
1078;SDS011;528;47.872;11.478;2022-07-23T19:27:33;14.53;;;13.13;;
1078;SDS011;528;47.872;11.478;2022-07-23T19:33:09;13.80;;;12.70;;
1078;SDS011;528;47.872;11.478;2022-07-23T19:41:33;13.70;;;12.50;;
1078;SDS011;528;47.872;11.478;2022-07-23T19:44:19;15.20;;;13.80;;
1078;SDS011;528;47.872;11.478;2022-07-23T19:47:03;13.43;;;12.33;;
1078;SDS011;528;47.872;11.478;2022-07-23T19:49:44;14.40;;;13.07;;
1078;SDS011;528;47.872;11.478;2022-07-23T19:52:45;13.60;;;12.50;;
1078;SDS011;528;47.872;11.478;2022-07-23T19:55:28;13.90;;;12.70;;
1078;SDS011;528;47.872;11.478;2022-07-23T19:57:58;14.97;;;13.73;;
1078;SDS011;528;47.872;11.478;2022-07-23T20:00:30;13.80;;;12.50;;
1078;SDS011;528;47.872;11.478;2022-07-23T20:03:17;14.90;;;13.60;;
1078;SDS011;528;47.872;11.478;2022-07-23T20:05:49;13.43;;;12.37;;
1078;SDS011;528;47.872;11.478;2022-07-23T20:08:30;14.13;;;12.93;;
1078;SDS011;528;47.872;11.478;2022-07-23T20:11:19;15.13;;;13.83;;
1078;SDS011;528;47.872;11.478;2022-07-23T20:14:24;14.03;;;12.93;;
1078;SDS011;528;47.872;11.478;2022-07-23T20:16:56;14.70;;;13.40;;
1078;SDS011;528;47.872;11.478;2022-07-23T20:19:53;13.30;;;12.30;;
1078;SDS011;528;47.872;11.478;2022-07-23T20:26:07;14.00;;;12.80;;
1078;SDS011;528;47.872;11.478;2022-07-23T20:29:13;14.70;;;13.50;;
1078;SDS011;528;47.872;11.478;2022-07-23T20:32:10;14.43;;;13.23;;
1078;SDS011;528;47.872;11.478;2022-07-23T20:38:27;14.50;;;13.20;;
1078;SDS011;528;47.872;11.478;2022-07-23T20:41:19;13.43;;;12.33;;
1078;SDS011;528;47.872;11.478;2022-07-23T20:44:03;13.47;;;12.47;;
1078;SDS011;528;47.872;11.478;2022-07-23T20:46:47;13.07;;;11.97;;
1078;SDS011;528;47.872;11.478;2022-07-23T20:49:23;13.40;;;12.40;;
1078;SDS011;528;47.872;11.478;2022-07-23T20:51:56;13.03;;;12.03;;
1078;SDS011;528;47.872;11.478;2022-07-23T20:54:38;13.00;;;11.90;;
1078;SDS011;528;47.872;11.478;2022-07-23T20:57:11;13.90;;;12.70;;
1078;SDS011;528;47.872;11.478;2022-07-23T20:59:49;13.47;;;12.30;;
1078;SDS011;528;47.872;11.478;2022-07-23T21:02:23;14.00;;;12.90;;
1078;SDS011;528;47.872;11.478;2022-07-23T21:05:02;14.50;;;13.20;;
1078;SDS011;528;47.872;11.478;2022-07-23T21:07:34;15.17;;;13.87;;
1078;SDS011;528;47.872;11.478;2022-07-23T21:10:11;14.30;;;13.10;;
1078;SDS011;528;47.872;11.478;2022-07-23T21:12:47;13.80;;;12.60;;
1078;SDS011;528;47.872;11.478;2022-07-23T21:15:20;13.90;;;12.70;;
1078;SDS011;528;47.872;11.478;2022-07-23T21:17:55;14.80;;;13.60;;
1078;SDS011;528;47.872;11.478;2022-07-23T21:20:33;14.50;;;13.30;;
1078;SDS011;528;47.872;11.478;2022-07-23T21:24:52;14.80;;;13.60;;
1078;SDS011;528;47.872;11.478;2022-07-23T21:26:37;13.70;;;12.50;;
1078;SDS011;528;47.872;11.478;2022-07-23T21:29:10;15.00;;;13.77;;
1078;SDS011;528;47.872;11.478;2022-07-23T21:31:43;14.30;;;13.10;;
1078;SDS011;528;47.872;11.478;2022-07-23T21:34:24;14.43;;;13.30;;
1078;SDS011;528;47.872;11.478;2022-07-23T21:37:04;14.40;;;13.30;;
1078;SDS011;528;47.872;11.478;2022-07-23T21:39:56;13.70;;;12.60;;
1078;SDS011;528;47.872;11.478;2022-07-23T21:42:50;15.43;;;14.20;;
1078;SDS011;528;47.872;11.478;2022-07-23T21:45:35;14.83;;;13.53;;
1078;SDS011;528;47.872;11.478;2022-07-23T21:49:03;14.63;;;13.30;;
1078;SDS011;528;47.872;11.478;2022-07-23T21:56:45;15.57;;;14.20;;
1078;SDS011;528;47.872;11.478;2022-07-23T21:59:19;14.70;;;13.50;;
1078;SDS011;528;47.872;11.478;2022-07-23T22:02:17;15.13;;;13.93;;
1078;SDS011;528;47.872;11.478;2022-07-23T22:05:02;14.97;;;13.70;;
1078;SDS011;528;47.872;11.478;2022-07-23T22:07:39;15.47;;;14.13;;
1078;SDS011;528;47.872;11.478;2022-07-23T22:10:12;15.40;;;14.00;;
1078;SDS011;528;47.872;11.478;2022-07-23T22:13:00;14.90;;;13.60;;
1078;SDS011;528;47.872;11.478;2022-07-23T22:15:30;15.60;;;14.17;;
1078;SDS011;528;47.872;11.478;2022-07-23T22:18:07;14.87;;;13.67;;
1078;SDS011;528;47.872;11.478;2022-07-23T22:20:36;15.53;;;14.23;;
1078;SDS011;528;47.872;11.478;2022-07-23T22:23:07;17.13;;;15.63;;
1078;SDS011;528;47.872;11.478;2022-07-23T22:25:41;16.80;;;15.40;;
1078;SDS011;528;47.872;11.478;2022-07-23T22:28:16;16.57;;;15.27;;
1078;SDS011;528;47.872;11.478;2022-07-23T22:30:44;16.03;;;14.63;;
1078;SDS011;528;47.872;11.478;2022-07-23T22:33:16;15.30;;;14.10;;
1078;SDS011;528;47.872;11.478;2022-07-23T22:35:50;15.40;;;14.00;;
1078;SDS011;528;47.872;11.478;2022-07-23T22:38:20;15.53;;;14.23;;
1078;SDS011;528;47.872;11.478;2022-07-23T22:40:48;15.03;;;13.83;;
1078;SDS011;528;47.872;11.478;2022-07-23T22:43:34;15.20;;;13.90;;
1078;SDS011;528;47.872;11.478;2022-07-23T22:46:08;15.53;;;14.20;;
1078;SDS011;528;47.872;11.478;2022-07-23T22:48:43;16.20;;;14.80;;
1078;SDS011;528;47.872;11.478;2022-07-23T22:51:14;15.53;;;14.27;;
1078;SDS011;528;47.872;11.478;2022-07-23T22:53:49;15.17;;;13.70;;
1078;SDS011;528;47.872;11.478;2022-07-23T22:56:19;14.60;;;13.40;;
1078;SDS011;528;47.872;11.478;2022-07-23T22:58:52;15.90;;;14.53;;
1078;SDS011;528;47.872;11.478;2022-07-23T23:01:25;14.53;;;13.43;;
1078;SDS011;528;47.872;11.478;2022-07-23T23:03:55;14.67;;;13.37;;
1078;SDS011;528;47.872;11.478;2022-07-23T23:06:24;14.87;;;13.57;;
1078;SDS011;528;47.872;11.478;2022-07-23T23:08:52;15.00;;;13.80;;
1078;SDS011;528;47.872;11.478;2022-07-23T23:11:31;15.10;;;13.80;;
1078;SDS011;528;47.872;11.478;2022-07-23T23:14:07;15.40;;;14.10;;
1078;SDS011;528;47.872;11.478;2022-07-23T23:16:36;15.57;;;14.20;;
1078;SDS011;528;47.872;11.478;2022-07-23T23:19:16;14.83;;;13.60;;
1078;SDS011;528;47.872;11.478;2022-07-23T23:21:53;14.37;;;13.10;;
1078;SDS011;528;47.872;11.478;2022-07-23T23:24:27;14.13;;;12.93;;
1078;SDS011;528;47.872;11.478;2022-07-23T23:27:11;14.10;;;12.87;;
1078;SDS011;528;47.872;11.478;2022-07-23T23:29:52;15.10;;;13.90;;
1078;SDS011;528;47.872;11.478;2022-07-23T23:32:24;17.03;;;15.63;;
1078;SDS011;528;47.872;11.478;2022-07-23T23:34:57;14.73;;;13.53;;
1078;SDS011;528;47.872;11.478;2022-07-23T23:37:49;16.10;;;14.70;;
1078;SDS011;528;47.872;11.478;2022-07-23T23:40:38;17.33;;;15.93;;
1078;SDS011;528;47.872;11.478;2022-07-23T23:43:15;16.87;;;15.50;;
1078;SDS011;528;47.872;11.478;2022-07-23T23:48:34;16.67;;;15.27;;
1078;SDS011;528;47.872;11.478;2022-07-23T23:51:16;16.20;;;14.70;;
1078;SDS011;528;47.872;11.478;2022-07-23T23:53:56;14.93;;;13.63;;
1078;SDS011;528;47.872;11.478;2022-07-23T23:56:31;13.90;;;12.70;;
1078;SDS011;528;47.872;11.478;2022-07-23T23:59:08;13.57;;;12.57;;
